Time;durP1;ratioP1;P1;durP2;ratioP2;P2;SDS_P1;SDS_P2;PMS_P1;PMS_P2;Temp;Humidity;BMP_temperature;BMP_pressure;BME280_temperature;BME280_humidity;BME280_pressure;Samples;Min_cycle;Max_cycle;Signal;HPM_P1;HPM_P2
2022/04/22 00:00:02;;;;;;;9.10;5.73;;;11.30;99.90;;;;;;5086936;28;20540;-87
2022/04/22 00:02:30;;;;;;;8.77;5.93;;;11.30;99.90;;;;;;5095359;28;20467;-86
2022/04/22 00:04:57;;;;;;;8.17;5.80;;;11.30;99.90;;;;;;5090719;28;20448;-88
2022/04/22 00:08:24;;;;;;;;;;;;;;;;;;;;;
2022/04/22 00:13:36;;;;;;;8.43;5.33;;;11.20;99.90;;;;;;5085325;28;20909;-86
2022/04/22 00:16:14;;;;;;;6.73;4.70;;;11.20;99.90;;;;;;5093646;28;20475;-86
2022/04/22 00:18:46;;;;;;;8.40;5.73;;;11.30;99.90;;;;;;5099888;28;20492;-86
2022/04/22 00:21:19;;;;;;;6.43;5.03;;;11.30;99.90;;;;;;5093873;28;20424;-86
2022/04/22 00:24:35;;;;;;;11.90;5.57;;;11.30;99.90;;;;;;5099065;28;20470;-88
2022/04/22 00:27:23;;;;;;;7.73;5.73;;;11.20;99.90;;;;;;5088539;28;20447;-87
2022/04/22 00:29:51;;;;;;;8.47;6.10;;;11.20;99.90;;;;;;5095399;28;20440;-86
2022/04/22 00:32:25;;;;;;;7.80;5.93;;;11.20;99.90;;;;;;5091457;28;20454;-87
2022/04/22 00:34:53;;;;;;;8.10;5.73;;;11.20;99.90;;;;;;5085461;28;20430;-86
2022/04/22 00:40:03;;;;;;;8.30;5.13;;;11.00;99.90;;;;;;5095531;28;20484;-86
2022/04/22 00:42:36;;;;;;;10.30;6.23;;;11.00;99.90;;;;;;5084713;28;20463;-87
2022/04/22 00:45:04;;;;;;;8.13;5.70;;;10.90;99.90;;;;;;5083917;28;20800;-86
2022/04/22 00:47:35;;;;;;;8.10;5.60;;;10.90;99.90;;;;;;5084182;28;20452;-87
2022/04/22 00:50:06;;;;;;;9.37;6.50;;;10.90;99.90;;;;;;5083499;28;20417;-87
2022/04/22 00:52:38;;;;;;;9.57;6.03;;;10.90;99.90;;;;;;5083930;28;20859;-87
2022/04/22 00:55:08;;;;;;;9.07;6.53;;;11.00;99.90;;;;;;5092395;28;20421;-88
2022/04/22 00:57:51;;;;;;;10.43;5.90;;;11.10;99.90;;;;;;5094716;28;20446;-86
2022/04/22 01:00:25;;;;;;;8.20;6.10;;;11.00;99.90;;;;;;5094115;28;20521;-87
2022/04/22 01:03:05;;;;;;;7.77;5.77;;;11.00;99.90;;;;;;5084487;28;20882;-88
2022/04/22 01:11:23;;;;;;;6.80;5.23;;;10.80;99.90;;;;;;5082941;28;20861;-87
2022/04/22 01:14:10;;;;;;;9.00;6.23;;;10.70;99.90;;;;;;5082045;28;20452;-87
2022/04/22 01:16:37;;;;;;;8.83;6.43;;;10.90;99.90;;;;;;5083438;28;20383;-87
2022/04/22 01:19:11;;;;;;;8.63;6.53;;;10.80;99.90;;;;;;5081365;28;20522;-86
2022/04/22 01:21:52;;;;;;;9.77;6.73;;;10.70;99.90;;;;;;5082306;28;20464;-87
2022/04/22 01:24:19;;;;;;;9.60;6.90;;;10.70;99.90;;;;;;5082955;28;20773;-87
2022/04/22 01:26:54;;;;;;;8.83;6.47;;;10.50;99.90;;;;;;5083723;28;20463;-87
2022/04/22 01:29:33;;;;;;;8.60;5.60;;;10.50;99.90;;;;;;5090172;28;20958;-87
2022/04/22 01:32:08;;;;;;;9.00;6.30;;;10.60;99.90;;;;;;5085478;28;20471;-86
2022/04/22 01:34:39;;;;;;;9.90;6.80;;;10.70;99.90;;;;;;5088753;28;20436;-86
2022/04/22 01:37:14;;;;;;;9.23;6.53;;;10.60;99.90;;;;;;5091207;28;20463;-86
2022/04/22 01:39:43;;;;;;;11.10;8.70;;;10.50;99.90;;;;;;5082282;28;20450;-88
2022/04/22 01:42:10;;;;;;;9.53;7.67;;;10.50;99.90;;;;;;5081253;28;20569;-87
2022/04/22 01:44:37;;;;;;;10.63;7.13;;;10.40;99.90;;;;;;5080989;28;20490;-86
2022/04/22 01:47:06;;;;;;;10.27;7.20;;;10.50;99.90;;;;;;5081189;28;20429;-87
2022/04/22 01:49:42;;;;;;;9.57;7.33;;;10.40;99.90;;;;;;5081351;28;20505;-87
2022/04/22 01:52:17;;;;;;;11.13;7.57;;;10.40;99.90;;;;;;5087493;28;20449;-87
2022/04/22 01:54:44;;;;;;;11.10;7.47;;;10.50;99.90;;;;;;5089450;28;20836;-87
2022/04/22 01:57:16;;;;;;;10.37;7.33;;;10.50;99.90;;;;;;5085028;28;20453;-86
2022/04/22 01:59:48;;;;;;;11.57;8.13;;;10.50;99.90;;;;;;5087687;28;20459;-87
2022/04/22 02:02:18;;;;;;;9.27;7.23;;;10.50;99.90;;;;;;5089136;28;20383;-88
2022/04/22 02:07:42;;;;;;;11.27;8.03;;;10.40;99.90;;;;;;5077992;28;20427;-87
2022/04/22 02:10:16;;;;;;;14.53;8.90;;;10.30;99.90;;;;;;5081791;28;20432;-87
2022/04/22 02:12:51;;;;;;;10.73;7.20;;;10.30;99.90;;;;;;5080774;28;20457;-87
2022/04/22 02:15:21;;;;;;;11.17;8.13;;;10.30;99.90;;;;;;5080607;28;20443;-87
2022/04/22 02:17:50;;;;;;;10.50;7.83;;;10.20;99.90;;;;;;5080673;28;20846;-87
2022/04/22 02:20:20;;;;;;;9.50;7.43;;;10.20;99.90;;;;;;5080522;28;20980;-87
2022/04/22 02:22:52;;;;;;;11.87;8.67;;;10.00;99.90;;;;;;5081361;28;20460;-87
2022/04/22 02:25:22;;;;;;;12.27;8.73;;;10.00;99.90;;;;;;5083055;28;20452;-86
2022/04/22 02:30:39;;;;;;;9.83;7.50;;;9.90;99.90;;;;;;5084183;28;20374;-86
2022/04/22 02:33:09;;;;;;;12.90;10.07;;;9.90;99.90;;;;;;5097649;28;20451;-85
2022/04/22 02:35:39;;;;;;;11.80;8.83;;;9.90;99.90;;;;;;5094721;28;20490;-85
2022/04/22 02:38:10;;;;;;;16.07;9.80;;;9.90;99.90;;;;;;5084041;28;21047;-87
2022/04/22 02:46:24;;;;;;;11.50;9.03;;;9.80;99.90;;;;;;5082617;28;20385;-87
2022/04/22 02:49:03;;;;;;;12.70;9.90;;;9.90;99.90;;;;;;5080678;28;20597;-86
2022/04/22 02:51:36;;;;;;;12.80;9.73;;;9.80;99.90;;;;;;5082007;28;20414;-87
2022/04/22 02:54:09;;;;;;;11.53;9.00;;;9.80;99.90;;;;;;5092416;28;20401;-85
2022/04/22 02:56:41;;;;;;;15.30;10.83;;;9.80;99.90;;;;;;5098417;28;20421;-85
2022/04/22 02:59:09;;;;;;;13.60;10.60;;;9.90;99.90;;;;;;5098347;28;20442;-84
2022/04/22 03:01:43;;;;;;;15.87;10.70;;;9.90;99.90;;;;;;5092403;28;20483;-86
2022/04/22 03:04:15;;;;;;;12.87;10.10;;;9.80;99.90;;;;;;5098148;28;20427;-85
2022/04/22 03:06:44;;;;;;;15.00;10.57;;;9.70;99.90;;;;;;5090002;28;20456;-86
2022/04/22 03:09:15;;;;;;;14.10;10.50;;;9.70;99.90;;;;;;5081963;28;20483;-86
2022/04/22 03:11:45;;;;;;;14.63;10.80;;;9.60;99.90;;;;;;5081190;28;20434;-86
2022/04/22 03:14:15;;;;;;;15.70;10.20;;;9.50;99.90;;;;;;5081079;28;20442;-87
2022/04/22 03:16:49;;;;;;;13.80;10.07;;;9.50;99.90;;;;;;5088959;28;20490;-86
2022/04/22 03:19:16;;;;;;;13.87;10.73;;;9.50;99.90;;;;;;5089658;28;20893;-87
2022/04/22 03:21:47;;;;;;;15.17;11.10;;;9.40;99.90;;;;;;5079153;28;20479;-86
2022/04/22 03:24:19;;;;;;;13.67;10.33;;;9.40;99.90;;;;;;5081448;28;20535;-86
2022/04/22 03:26:54;;;;;;;13.33;10.17;;;9.30;99.90;;;;;;5082771;28;20875;-87
2022/04/22 03:29:25;;;;;;;13.37;10.57;;;9.30;99.90;;;;;;5086759;28;20398;-86
2022/04/22 03:32:03;;;;;;;19.17;13.87;;;9.40;99.90;;;;;;5097727;28;20456;-86
2022/04/22 03:34:31;;;;;;;16.43;11.37;;;9.40;99.90;;;;;;5085042;28;20487;-87
2022/04/22 03:37:03;;;;;;;13.93;10.30;;;9.30;99.90;;;;;;5086356;28;20451;-86
2022/04/22 03:39:39;;;;;;;13.03;10.10;;;9.30;99.90;;;;;;5092646;28;20451;-86
2022/04/22 03:42:14;;;;;;;15.63;10.90;;;9.40;99.90;;;;;;5089227;28;20450;-87
2022/04/22 03:44:49;;;;;;;13.50;9.80;;;9.30;99.90;;;;;;5085804;28;20410;-86
2022/04/22 03:47:22;;;;;;;14.60;10.90;;;9.30;99.90;;;;;;5084929;28;20449;-86
2022/04/22 03:49:54;;;;;;;18.00;11.37;;;9.20;99.90;;;;;;5084790;28;20448;-85
2022/04/22 03:52:27;;;;;;;13.03;9.47;;;9.20;99.90;;;;;;5083427;28;20902;-87
2022/04/22 03:55:06;;;;;;;16.40;11.20;;;9.20;99.90;;;;;;5083372;28;20422;-87
2022/04/22 04:00:44;;;;;;;14.77;10.63;;;9.20;99.90;;;;;;5078860;28;20479;-87
2022/04/22 04:03:17;;;;;;;12.37;8.17;;;9.20;99.90;;;;;;5084167;28;20415;-87
2022/04/22 04:05:57;;;;;;;11.97;8.70;;;9.20;99.90;;;;;;5083241;28;20461;-86
2022/04/22 04:08:30;;;;;;;13.60;9.63;;;9.20;99.90;;;;;;5084009;28;20453;-86
2022/04/22 04:16:51;;;;;;;12.30;8.77;;;9.30;99.90;;;;;;5090534;28;20454;-87
2022/04/22 04:25:09;;;;;;;15.30;10.10;;;8.80;99.90;;;;;;5083615;28;20411;-86
2022/04/22 04:27:37;;;;;;;15.20;10.87;;;8.70;99.90;;;;;;5097008;22;20446;-86
2022/04/22 04:30:05;;;;;;;15.33;9.40;;;8.70;99.90;;;;;;5080637;28;20411;-85
2022/04/22 04:32:35;;;;;;;16.53;11.17;;;8.70;99.90;;;;;;5080691;28;20434;-84
2022/04/22 04:35:02;;;;;;;13.40;9.80;;;8.60;99.90;;;;;;5081649;28;20858;-86
2022/04/22 04:37:29;;;;;;;16.50;10.50;;;8.60;99.90;;;;;;5078493;28;20444;-84
2022/04/22 04:39:56;;;;;;;14.13;10.67;;;8.50;99.90;;;;;;5079275;28;20530;-84
2022/04/22 04:42:24;;;;;;;15.33;10.57;;;8.50;99.90;;;;;;5081418;28;20456;-84
2022/04/22 04:44:52;;;;;;;13.30;10.20;;;8.40;99.90;;;;;;5085096;28;20447;-84
2022/04/22 04:47:19;;;;;;;14.70;10.47;;;8.50;99.90;;;;;;5097623;28;20421;-84
2022/04/22 04:49:46;;;;;;;15.03;10.73;;;8.50;99.90;;;;;;5085128;28;20434;-86
2022/04/22 04:52:13;;;;;;;14.20;10.20;;;8.50;99.90;;;;;;5081429;28;20418;-86
2022/04/22 04:54:40;;;;;;;15.93;10.30;;;8.50;99.90;;;;;;5080563;28;20538;-86
2022/04/22 04:57:07;;;;;;;15.30;11.37;;;8.50;99.90;;;;;;5080256;28;20455;-85
2022/04/22 04:59:34;;;;;;;15.17;11.57;;;8.60;99.90;;;;;;5080990;28;20494;-85
2022/04/22 05:02:03;;;;;;;16.40;11.10;;;8.50;99.90;;;;;;5080632;28;20979;-85
2022/04/22 05:04:30;;;;;;;18.03;12.57;;;8.40;99.90;;;;;;5084777;28;20515;-84
2022/04/22 05:06:59;;;;;;;14.30;10.80;;;8.40;99.90;;;;;;5099664;28;20426;-84
2022/04/22 05:09:26;;;;;;;22.00;16.20;;;8.50;99.90;;;;;;5086654;28;20478;-85
2022/04/22 05:11:54;;;;;;;16.60;11.77;;;8.50;99.90;;;;;;5079322;28;20551;-84
2022/04/22 05:14:21;;;;;;;20.10;12.53;;;8.60;99.90;;;;;;5079037;28;20451;-84
2022/04/22 05:16:48;;;;;;;19.67;12.50;;;8.70;99.90;;;;;;5084840;28;20807;-86
2022/04/22 05:19:16;;;;;;;18.40;13.10;;;8.70;99.90;;;;;;5092162;28;20460;-84
2022/04/22 05:21:43;;;;;;;18.10;12.20;;;8.70;99.90;;;;;;5098837;28;20495;-84
2022/04/22 05:24:10;;;;;;;17.23;12.70;;;8.70;99.90;;;;;;5093785;28;20484;-85
2022/04/22 05:26:37;;;;;;;18.63;12.33;;;8.70;99.90;;;;;;5082439;28;20447;-85
2022/04/22 05:29:04;;;;;;;19.23;12.90;;;8.90;99.90;;;;;;5099406;28;20492;-85
2022/04/22 05:34:17;;;;;;;17.60;13.73;;;8.90;99.90;;;;;;5102462;28;20414;-86
2022/04/22 05:36:44;;;;;;;18.80;13.50;;;8.90;99.90;;;;;;5101737;28;20418;-86
2022/04/22 05:39:11;;;;;;;22.77;16.70;;;9.00;99.90;;;;;;5103727;28;20471;-86
2022/04/22 05:41:38;;;;;;;23.90;15.43;;;9.20;99.90;;;;;;5110116;28;20457;-86
2022/04/22 05:44:05;;;;;;;23.07;17.27;;;9.20;99.90;;;;;;5109476;28;20447;-87
2022/04/22 05:46:32;;;;;;;31.37;18.47;;;9.20;99.90;;;;;;5107400;28;20447;-87
2022/04/22 05:48:59;;;;;;;25.43;18.60;;;9.20;99.90;;;;;;5106886;28;20574;-86
2022/04/22 05:51:27;;;;;;;27.53;18.80;;;9.20;99.90;;;;;;5113304;28;20440;-86
2022/04/22 05:53:54;;;;;;;24.43;18.50;;;9.30;99.90;;;;;;5108628;28;20451;-85
2022/04/22 05:56:21;;;;;;;28.13;19.10;;;9.20;99.90;;;;;;5101920;28;20456;-84
2022/04/22 05:58:48;;;;;;;26.07;17.33;;;9.20;99.90;;;;;;5101825;28;20803;-86
2022/04/22 06:01:15;;;;;;;28.07;17.57;;;9.40;99.90;;;;;;5101699;28;21026;-86
2022/04/22 06:03:42;;;;;;;25.20;18.10;;;9.40;99.90;;;;;;5102375;28;20451;-86
2022/04/22 06:06:09;;;;;;;29.00;17.90;;;9.40;99.90;;;;;;5115065;28;20519;-86
2022/04/22 06:11:22;;;;;;;21.70;17.70;;;9.40;99.90;;;;;;5104109;28;20464;-85
2022/04/22 06:13:49;;;;;;;25.07;17.90;;;9.20;99.90;;;;;;5101924;28;20969;-87
2022/04/22 06:16:17;;;;;;;24.30;16.63;;;9.40;99.90;;;;;;5099297;28;20504;-86
2022/04/22 06:18:44;;;;;;;26.30;16.90;;;9.40;99.90;;;;;;5111008;28;20447;-84
2022/04/22 06:21:11;;;;;;;24.13;17.40;;;9.50;99.90;;;;;;5118119;28;20445;-84
2022/04/22 06:23:40;;;;;;;25.90;17.00;;;9.60;99.90;;;;;;5100146;28;20481;-86
2022/04/22 06:26:09;;;;;;;24.47;18.73;;;9.60;99.90;;;;;;5099308;28;20511;-87
2022/04/22 06:28:36;;;;;;;25.20;17.93;;;9.70;99.90;;;;;;5099510;28;20551;-87
2022/04/22 06:31:03;;;;;;;26.83;19.70;;;9.80;99.90;;;;;;5098575;28;20439;-86
2022/04/22 06:33:31;;;;;;;26.97;19.97;;;9.70;99.90;;;;;;5100298;28;20776;-85
2022/04/22 06:36:03;;;;;;;27.23;19.73;;;9.70;99.90;;;;;;5100743;28;20450;-84
2022/04/22 06:38:31;;;;;;;28.23;19.47;;;9.90;99.90;;;;;;5101430;28;20888;-86
2022/04/22 06:46:30;;;;;;;26.77;17.80;;;9.90;99.90;;;;;;5099637;28;20501;-86
2022/04/22 06:48:58;;;;;;;28.37;19.73;;;10.10;99.90;;;;;;5100007;28;20476;-85
2022/04/22 06:51:25;;;;;;;25.93;17.33;;;10.20;99.90;;;;;;5100614;28;20505;-85
2022/04/22 06:53:53;;;;;;;24.33;18.53;;;10.10;99.90;;;;;;5101438;28;20922;-85
2022/04/22 06:56:27;;;;;;;27.20;19.70;;;10.30;99.90;;;;;;5101434;28;20812;-85
2022/04/22 06:58:55;;;;;;;28.83;18.93;;;10.30;99.90;;;;;;5101396;28;20449;-85
2022/04/22 07:01:22;;;;;;;29.93;20.03;;;10.20;99.90;;;;;;5103411;28;20490;-84
2022/04/22 07:03:50;;;;;;;29.70;20.27;;;10.20;99.90;;;;;;5104626;28;20912;-84
2022/04/22 07:06:18;;;;;;;29.20;20.37;;;10.20;99.90;;;;;;5102874;28;20447;-85
2022/04/22 07:08:46;;;;;;;24.60;19.33;;;10.10;99.90;;;;;;5101263;28;20474;-85
2022/04/22 07:11:18;;;;;;;25.77;19.47;;;10.20;99.90;;;;;;5101613;28;20443;-85
2022/04/22 07:13:47;;;;;;;26.27;19.53;;;10.20;99.90;;;;;;5102535;28;20507;-85
2022/04/22 07:16:17;;;;;;;24.37;17.57;;;10.20;99.90;;;;;;5099916;28;20457;-85
2022/04/22 07:18:45;;;;;;;29.53;17.93;;;10.50;99.90;;;;;;5101176;28;20449;-86
2022/04/22 07:21:12;;;;;;;27.50;20.53;;;10.40;99.90;;;;;;5105331;28;21043;-84
2022/04/22 07:23:40;;;;;;;27.83;19.20;;;10.40;99.90;;;;;;5115416;28;20417;-84
2022/04/22 07:26:09;;;;;;;24.47;18.30;;;10.50;99.90;;;;;;5111625;28;20433;-84
2022/04/22 07:28:38;;;;;;;28.70;21.40;;;10.60;99.90;;;;;;5113814;28;20550;-85
2022/04/22 07:31:08;;;;;;;24.93;19.70;;;10.60;99.90;;;;;;5102615;28;20461;-86
2022/04/22 07:33:35;;;;;;;24.90;18.73;;;10.70;99.90;;;;;;5104864;28;20424;-85
2022/04/22 07:36:02;;;;;;;25.70;18.27;;;10.70;99.90;;;;;;5103136;28;20885;-85
2022/04/22 07:38:30;;;;;;;22.77;16.47;;;10.90;99.90;;;;;;5099925;28;20520;-83
2022/04/22 07:40:57;;;;;;;25.57;18.80;;;10.90;99.90;;;;;;5100615;28;20459;-85
2022/04/22 07:48:57;;;;;;;24.53;16.53;;;10.90;99.90;;;;;;5105634;28;20424;-86
2022/04/22 07:51:25;;;;;;;26.53;20.83;;;11.00;99.90;;;;;;5105365;28;20446;-86
2022/04/22 07:53:52;;;;;;;24.57;19.63;;;10.80;99.90;;;;;;5106003;28;20429;-87
2022/04/22 07:56:21;;;;;;;24.80;18.40;;;11.00;99.90;;;;;;5102902;28;20466;-87
2022/04/22 07:58:48;;;;;;;27.00;20.00;;;11.20;99.90;;;;;;5107343;28;20509;-86
2022/04/22 08:01:16;;;;;;;24.30;18.60;;;11.30;99.90;;;;;;5114661;28;20479;-87
2022/04/22 08:03:43;;;;;;;23.77;16.70;;;11.50;99.90;;;;;;5113473;28;20449;-86
2022/04/22 08:06:11;;;;;;;24.10;19.40;;;11.50;99.90;;;;;;5110735;28;20421;-86
2022/04/22 08:08:38;;;;;;;22.60;15.90;;;11.40;99.90;;;;;;5111800;28;20438;-85
2022/04/22 08:11:07;;;;;;;27.63;18.40;;;11.50;99.90;;;;;;5117031;28;20439;-83
2022/04/22 08:13:35;;;;;;;30.50;21.13;;;11.60;99.90;;;;;;5117778;27;20439;-85
2022/04/22 08:16:02;;;;;;;25.50;18.53;;;11.50;99.90;;;;;;5110256;28;20443;-86
2022/04/22 08:18:31;;;;;;;20.73;14.63;;;11.50;99.90;;;;;;5108841;28;20481;-86
2022/04/22 08:20:58;;;;;;;22.07;16.33;;;11.50;99.90;;;;;;5104067;28;20425;-86
2022/04/22 08:23:25;;;;;;;26.53;20.13;;;11.50;99.90;;;;;;5105115;28;20851;-87
2022/04/22 08:25:52;;;;;;;27.37;20.47;;;11.50;99.90;;;;;;5103442;28;20496;-87
2022/04/22 08:28:19;;;;;;;26.80;18.30;;;11.70;99.90;;;;;;5102371;28;20466;-86
2022/04/22 08:30:46;;;;;;;26.53;18.17;;;11.90;99.90;;;;;;5103261;28;20447;-86
2022/04/22 08:33:13;;;;;;;23.53;18.47;;;11.90;99.90;;;;;;5106913;28;20481;-86
2022/04/22 08:35:41;;;;;;;26.07;17.63;;;11.90;99.90;;;;;;5111122;28;20429;-86
2022/04/22 08:38:08;;;;;;;22.90;17.80;;;12.00;99.90;;;;;;5117467;28;20458;-85
2022/04/22 08:40:37;;;;;;;25.90;20.67;;;12.00;99.90;;;;;;5110732;28;20451;-84
2022/04/22 08:43:04;;;;;;;22.87;18.67;;;12.20;99.90;;;;;;5107353;28;20487;-84
2022/04/22 08:45:33;;;;;;;21.57;17.07;;;12.30;99.90;;;;;;5109034;28;20422;-83
2022/04/22 08:50:48;;;;;;;23.60;18.73;;;12.60;99.90;;;;;;5108725;28;20539;-84
2022/04/22 08:53:21;;;;;;;25.27;17.87;;;12.70;99.90;;;;;;5099649;28;20410;-83
2022/04/22 08:55:50;;;;;;;24.20;18.50;;;12.60;99.90;;;;;;5100977;28;20436;-84
2022/04/22 08:58:18;;;;;;;23.77;16.87;;;12.60;99.90;;;;;;5104074;28;20451;-87
2022/04/22 09:00:49;;;;;;;23.90;19.63;;;12.70;99.90;;;;;;5108034;28;20418;-86
2022/04/22 09:03:17;;;;;;;23.43;18.37;;;12.80;99.90;;;;;;5111107;28;20478;-86
2022/04/22 09:05:45;;;;;;;21.57;17.90;;;13.00;99.90;;;;;;5111007;28;20463;-87
2022/04/22 09:08:13;;;;;;;21.87;17.33;;;13.20;99.90;;;;;;5107467;28;20486;-86
2022/04/22 09:10:42;;;;;;;23.37;17.80;;;13.20;99.90;;;;;;5101761;28;20421;-85
2022/04/22 09:13:10;;;;;;;22.43;17.57;;;13.10;99.90;;;;;;5100696;28;20436;-85
2022/04/22 09:15:39;;;;;;;23.60;16.90;;;13.00;99.90;;;;;;5099491;28;20438;-85
2022/04/22 09:18:11;;;;;;;21.70;16.60;;;13.10;99.90;;;;;;5099908;28;20595;-85
2022/04/22 09:20:38;;;;;;;25.13;18.57;;;13.10;99.90;;;;;;5100288;28;20449;-85
2022/04/22 09:23:25;;;;;;;27.90;20.33;;;13.10;99.90;;;;;;5100554;28;20465;-84
2022/04/22 09:25:52;;;;;;;22.57;17.30;;;13.30;99.90;;;;;;5102134;28;20414;-84
2022/04/22 09:28:18;;;;;;;21.20;17.50;;;13.50;99.90;;;;;;5106163;28;20557;-86
2022/04/22 09:30:56;;;;;;;26.53;19.80;;;13.70;99.90;;;;;;5108491;28;20514;-88
2022/04/22 09:33:23;;;;;;;21.50;17.50;;;14.00;99.90;;;;;;5115293;28;20401;-86
2022/04/22 09:44:24;;;;;;;19.30;14.60;;;14.30;99.90;;;;;;5100570;28;20396;-85
2022/04/22 09:47:12;;;;;;;19.47;15.60;;;14.20;99.90;;;;;;5100805;28;20441;-87
2022/04/22 09:49:43;;;;;;;18.63;14.80;;;14.20;99.90;;;;;;5111787;28;20458;-81
2022/04/22 09:52:10;;;;;;;17.53;12.57;;;14.10;99.90;;;;;;5118886;28;20427;-86
2022/04/22 09:54:39;;;;;;;18.67;14.57;;;14.10;99.90;;;;;;5109791;28;20457;-87
2022/04/22 09:57:06;;;;;;;21.53;17.10;;;14.30;99.90;;;;;;5103027;28;20946;-86
2022/04/22 09:59:35;;;;;;;20.17;15.50;;;14.40;99.90;;;;;;5101343;28;20473;-86
2022/04/22 10:02:04;;;;;;;20.27;18.00;;;14.50;99.90;;;;;;5101201;28;20541;-86
2022/04/22 10:04:33;;;;;;;22.93;17.10;;;14.60;99.90;;;;;;5114561;28;20528;-85
2022/04/22 10:07:02;;;;;;;18.67;13.67;;;14.60;99.90;;;;;;5105640;28;20447;-85
2022/04/22 10:09:30;;;;;;;13.63;8.90;;;14.60;99.90;;;;;;5117629;28;20478;-84
2022/04/22 10:12:00;;;;;;;19.50;13.50;;;14.60;99.90;;;;;;5115993;28;20923;-86
2022/04/22 10:14:36;;;;;;;19.77;15.07;;;14.60;99.90;;;;;;5111419;28;20469;-85
2022/04/22 10:17:04;;;;;;;17.00;13.10;;;14.60;99.90;;;;;;5103128;28;20442;-85
2022/04/22 10:19:33;;;;;;;17.23;14.07;;;14.80;99.90;;;;;;5102414;28;20425;-86
2022/04/22 10:22:00;;;;;;;16.53;13.90;;;14.90;99.90;;;;;;5102069;28;20483;-85
2022/04/22 10:24:28;;;;;;;20.10;14.70;;;14.70;99.90;;;;;;5100936;28;20547;-86
2022/04/22 10:26:54;;;;;;;19.97;15.60;;;14.60;99.90;;;;;;5100058;28;20425;-85
2022/04/22 10:29:23;;;;;;;21.07;16.00;;;14.60;99.90;;;;;;5100069;28;20477;-85
2022/04/22 10:31:52;;;;;;;18.83;14.60;;;14.70;99.90;;;;;;5100662;28;20444;-86
2022/04/22 10:34:19;;;;;;;17.03;14.93;;;15.10;99.70;;;;;;5098714;28;20534;-85
2022/04/22 10:36:46;;;;;;;17.80;15.60;;;15.30;99.20;;;;;;5099244;28;20440;-85
2022/04/22 10:39:33;;;;;;;16.93;14.50;;;15.50;99.00;;;;;;5099824;28;20510;-84
2022/04/22 10:42:00;;;;;;;17.43;15.73;;;15.70;98.20;;;;;;5099347;28;20467;-87
2022/04/22 10:47:15;;;;;;;18.60;13.77;;;15.70;97.80;;;;;;5079826;28;20439;-86
2022/04/22 10:49:43;;;;;;;17.70;15.73;;;15.60;98.00;;;;;;5108550;28;20567;-86
2022/04/22 10:52:17;;;;;;;17.17;12.07;;;15.40;98.50;;;;;;5109773;28;20500;-86
2022/04/22 10:55:10;;;;;;;15.40;13.73;;;15.70;98.00;;;;;;5103336;28;20920;-85
2022/04/22 10:57:39;;;;;;;19.30;15.60;;;16.00;97.50;;;;;;5101741;28;20459;-85
2022/04/22 11:00:28;;;;;;;15.80;13.20;;;16.10;96.90;;;;;;5102872;28;20465;-87
2022/04/22 11:03:03;;;;;;;17.40;14.57;;;16.10;96.90;;;;;;5102761;28;20437;-86
2022/04/22 11:05:39;;;;;;;15.87;11.40;;;16.20;96.90;;;;;;5102096;28;20537;-87
2022/04/22 11:08:07;;;;;;;17.40;14.90;;;16.00;96.60;;;;;;5101565;28;20467;-86
2022/04/22 11:11:05;;;;;;;16.97;15.23;;;16.00;97.10;;;;;;5249230;22;20498;-87
2022/04/22 11:13:39;;;;;;;18.87;14.03;;;16.00;97.10;;;;;;5107946;28;20431;-87
2022/04/22 11:16:09;;;;;;;17.50;10.70;;;16.30;96.80;;;;;;5105502;28;20427;-86
2022/04/22 11:18:39;;;;;;;16.60;14.40;;;16.30;96.60;;;;;;5103691;28;20488;-86
2022/04/22 11:21:11;;;;;;;18.13;15.03;;;16.10;97.20;;;;;;5120636;28;20474;-86
2022/04/22 11:23:40;;;;;;;16.67;13.33;;;16.00;97.30;;;;;;5122977;28;20557;-86
2022/04/22 11:26:08;;;;;;;14.50;11.63;;;16.20;97.00;;;;;;5122345;28;20438;-86
2022/04/22 11:28:36;;;;;;;19.57;15.60;;;16.00;96.60;;;;;;5123820;28;20421;-87
2022/04/22 11:31:07;;;;;;;20.80;13.43;;;15.90;97.10;;;;;;5125239;28;20895;-86
2022/04/22 11:33:55;;;;;;;13.30;10.50;;;15.90;97.20;;;;;;5130984;28;20482;-87
2022/04/22 11:36:24;;;;;;;20.30;15.07;;;16.10;96.70;;;;;;5124879;28;20426;-87
2022/04/22 11:38:53;;;;;;;16.10;10.80;;;16.10;96.20;;;;;;5125010;28;20911;-86
2022/04/22 11:41:21;;;;;;;15.90;14.20;;;16.20;96.10;;;;;;5126159;28;20474;-87
2022/04/22 11:43:48;;;;;;;16.47;12.40;;;16.40;96.40;;;;;;5132009;28;20466;-87
2022/04/22 11:46:16;;;;;;;15.40;12.03;;;16.70;96.20;;;;;;5125577;28;20450;-87
2022/04/22 11:48:48;;;;;;;22.67;15.80;;;16.80;95.50;;;;;;5131425;28;20466;-87
2022/04/22 11:51:19;;;;;;;19.23;14.37;;;16.80;95.50;;;;;;5130029;28;20469;-87
2022/04/22 11:53:48;;;;;;;16.80;15.00;;;16.90;95.40;;;;;;5128973;28;20848;-88
2022/04/22 11:56:20;;;;;;;19.23;14.60;;;16.80;95.40;;;;;;5131685;28;20913;-87
2022/04/22 11:58:51;;;;;;;16.40;14.60;;;16.90;95.40;;;;;;5132692;28;20465;-86
2022/04/22 12:06:49;;;;;;;16.97;13.73;;;16.90;94.40;;;;;;5129556;28;20421;-86
2022/04/22 12:09:17;;;;;;;14.40;12.77;;;17.10;94.60;;;;;;5127588;28;20994;-87
2022/04/22 12:11:45;;;;;;;16.03;12.07;;;17.10;93.90;;;;;;5127782;28;20453;-86
2022/04/22 12:14:13;;;;;;;15.53;13.17;;;17.20;93.70;;;;;;5125723;28;20473;-86
2022/04/22 12:16:41;;;;;;;18.20;15.90;;;17.10;93.80;;;;;;5126930;28;20400;-88
2022/04/22 12:19:09;;;;;;;16.20;13.43;;;17.20;94.00;;;;;;5127347;28;20442;-86
2022/04/22 12:21:36;;;;;;;16.00;12.50;;;17.30;93.90;;;;;;5127687;28;20506;-87
2022/04/22 12:24:07;;;;;;;15.17;13.07;;;17.60;93.40;;;;;;5126689;28;20465;-87
2022/04/22 12:26:35;;;;;;;16.63;14.00;;;17.60;93.10;;;;;;5133525;28;20426;-87
2022/04/22 12:29:10;;;;;;;14.20;12.70;;;17.70;92.90;;;;;;5133729;28;20489;-87
2022/04/22 12:31:39;;;;;;;15.07;13.00;;;17.90;92.50;;;;;;5128233;28;20826;-87
2022/04/22 12:34:08;;;;;;;15.90;14.03;;;17.90;92.40;;;;;;5128126;28;20441;-87
2022/04/22 12:36:37;;;;;;;19.00;13.33;;;18.10;92.70;;;;;;5127792;28;20477;-88
2022/04/22 12:39:06;;;;;;;17.23;15.27;;;18.10;92.00;;;;;;5127890;28;20434;-88
2022/04/22 12:41:44;;;;;;;15.20;13.27;;;18.10;91.50;;;;;;5129625;28;20486;-87
2022/04/22 12:44:13;;;;;;;21.83;11.07;;;18.10;91.60;;;;;;5131830;28;20534;-87
2022/04/22 12:52:16;;;;;;;16.77;14.40;;;17.80;92.20;;;;;;5135778;28;20412;-87
2022/04/22 12:54:46;;;;;;;16.13;13.60;;;17.90;91.70;;;;;;5136550;28;20446;-87
2022/04/22 12:57:19;;;;;;;15.80;13.63;;;17.90;91.80;;;;;;5133636;28;20445;-87
2022/04/22 12:59:49;;;;;;;15.67;11.33;;;18.00;91.90;;;;;;5136209;28;20462;-87
2022/04/22 13:02:18;;;;;;;14.90;13.00;;;18.10;91.50;;;;;;5129178;28;20477;-87
2022/04/22 13:04:53;;;;;;;13.07;9.97;;;18.10;91.30;;;;;;5133293;28;20429;-87
2022/04/22 13:07:21;;;;;;;16.80;14.40;;;18.10;91.10;;;;;;5134593;28;20456;-87
2022/04/22 13:09:49;;;;;;;14.73;13.17;;;18.10;90.80;;;;;;5127215;28;20483;-87
2022/04/22 13:12:17;;;;;;;14.90;12.60;;;18.10;90.70;;;;;;5126001;28;20511;-88
2022/04/22 13:15:07;;;;;;;14.50;11.90;;;18.30;90.90;;;;;;5133594;28;20615;-88
2022/04/22 13:17:39;;;;;;;14.17;12.17;;;18.50;90.50;;;;;;5130627;28;20501;-87
2022/04/22 13:20:12;;;;;;;15.00;13.23;;;18.50;89.70;;;;;;5133989;28;20473;-87
2022/04/22 13:22:40;;;;;;;16.03;12.00;;;18.40;90.00;;;;;;5127108;28;20883;-87
2022/04/22 13:25:11;;;;;;;12.43;11.13;;;18.50;89.60;;;;;;5132037;28;20466;-86
2022/04/22 13:27:38;;;;;;;13.00;10.80;;;18.70;88.40;;;;;;5130909;28;20511;-86
2022/04/22 13:30:07;;;;;;;15.60;12.13;;;18.70;87.60;;;;;;5130962;28;20465;-86
2022/04/22 13:32:34;;;;;;;12.70;11.20;;;18.80;87.10;;;;;;5134190;28;20420;-86
2022/04/22 13:35:01;;;;;;;13.47;11.80;;;18.80;86.60;;;;;;5126206;28;20910;-87
2022/04/22 13:37:32;;;;;;;31.60;15.10;;;18.80;86.10;;;;;;5127341;28;20438;-86
2022/04/22 13:39:59;;;;;;;21.23;12.10;;;18.80;86.90;;;;;;5127729;28;20489;-86
2022/04/22 13:42:27;;;;;;;15.40;12.10;;;18.80;86.50;;;;;;5130754;28;20486;-87
2022/04/22 13:53:10;;;;;;;12.07;10.80;;;19.30;83.30;;;;;;5131721;28;20422;-87
2022/04/22 13:55:39;;;;;;;14.03;11.90;;;19.20;84.20;;;;;;5130915;28;20450;-88
2022/04/22 13:58:07;;;;;;;15.90;11.43;;;19.20;84.30;;;;;;5135781;28;20438;-85
2022/04/22 14:00:35;;;;;;;15.80;14.10;;;19.30;84.70;;;;;;5133278;28;20489;-87
2022/04/22 14:03:03;;;;;;;16.10;12.47;;;19.20;84.50;;;;;;5122582;28;20477;-87
2022/04/22 14:05:33;;;;;;;16.50;12.00;;;19.30;84.50;;;;;;5123776;28;20446;-86
2022/04/22 14:08:00;;;;;;;13.80;11.50;;;19.30;83.70;;;;;;5124378;28;20450;-86
2022/04/22 14:10:27;;;;;;;13.10;11.50;;;19.30;82.60;;;;;;5122259;28;20481;-87
2022/04/22 14:12:55;;;;;;;13.40;11.87;;;19.20;83.10;;;;;;5124357;28;20476;-87
2022/04/22 14:15:25;;;;;;;14.73;12.30;;;19.20;83.50;;;;;;5129533;28;20450;-88